• Join FlightAware (Why Join?)
  • Login
  • US Flag 
10:09PM EDT


 

Airport Tracker/Info


-or-


 

Live Flight TrackerFlight Track Log ✈ FSR411 ✈ 05-Sep-2013 ✈ KDET - KCMI

Flight Track Log - Related Links

Times and Time Zones

All times are in EDT time to prevent confusion due to time zone crossing. See the FSR411 flight status page for this flight to view local times or setup timezone preferences in your user account.

Time Position Orientation Groundspeed Altitude Reporting Facility
EDT Latitude Longitude Course Direction KTS MPH feet Rate Location/Type
04:01PM 42.4503 -83.0539 319° Northwest 177 204 4,000  Level Cleveland Center
04:02PM 42.4525 -83.1469 272° West 257 296 6,900 1,680 Climbing Cleveland Center
04:03PM 42.4481 -83.2508 267° West 270 311 7,500 1,500 Climbing Cleveland Center
04:04PM 42.4331 -83.3486 258° West 292 336 10,000 1,860 Climbing Cleveland Center
04:05PM 42.3931 -83.4567 243° Southwest 311 358 11,400 1,440 Climbing Cleveland Center
04:06PM 42.3181 -83.5403 220° Southwest 396 456 13,000 780 Climbing Cleveland Center
04:07PM 42.2106 -83.5828 196° South 412 474 13,000  Level Cleveland Center
04:09PM 42.0547 -83.6428 196° South 424 488 13,000 480 Level Cleveland Center
04:10PM 41.9450 -83.6878 197° South 424 488 14,300 2,460 Climbing Cleveland Center
04:11PM 41.8292 -83.7322 196° South 424 488 18,000 3,660 Climbing Cleveland Center
04:12PM 41.7153 -83.7822 198° South 429 494 21,700 3,360 Climbing Cleveland Center
04:13PM 41.6367 -83.9033 229° Southwest 419 482 24,800 2,520 Climbing Cleveland Center
04:14PM 41.5722 -84.0361 237° Southwest 413 475 26,800 1,440 Climbing Cleveland Center
04:15PM 41.5083 -84.1647 236° Southwest 449 517 27,800 540 Climbing Chicago Center
04:16PM 41.4347 -84.3075 236° Southwest 463 533 28,000 60 Climbing Chicago Center
04:17PM 41.3667 -84.4931 244° Southwest 467 537 28,000  Level Chicago Center
04:18PM 41.3156 -84.6511 247° West 464 534 28,000  Level Chicago Center
04:19PM 41.2631 -84.8106 246° West 467 537 28,000  Level Chicago Center
04:20PM 41.2097 -84.9703 246° West 472 543 28,000  Level Chicago Center
04:21PM 41.1561 -85.1300 246° West 471 542 28,000  Level Chicago Center
04:22PM 41.1011 -85.2886 245° Southwest 470 541 28,000  Level Chicago Center
04:23PM 41.0489 -85.4469 246° West 469 540 28,000  Level Chicago Center
04:24PM 40.9839 -85.6358 246° West 469 540 28,000  Level Chicago Center
04:25PM 40.9294 -85.7942 246° West 471 542 28,000  Level Chicago Center
04:26PM 40.8753 -85.9533 246° West 474 545 28,000  Level Chicago Center
04:27PM 40.8214 -86.1122 246° West 475 547 28,000  Level Chicago Center
04:28PM 40.7667 -86.2683 245° Southwest 471 542 28,000  Level Chicago Center
04:29PM 40.7125 -86.4233 245° Southwest 468 539 28,000  Level Chicago Center
04:30PM 40.6578 -86.5775 245° Southwest 459 528 28,000  Level Chicago Center
04:31PM 40.5922 -86.7658 245° Southwest 473 544 28,000 -1,020 Level Chicago Center
04:32PM 40.5381 -86.9169 245° Southwest 470 541 25,900 -1,440 Descending Chicago Center
04:33PM 40.4869 -87.0589 245° Southwest 456 525 25,000 -840 Descending Chicago Center
04:34PM 40.4375 -87.1917 244° Southwest 437 503 24,200 -1,740 Descending Chicago Center
04:35PM 40.3908 -87.3208 245° Southwest 410 472 21,500 -3,360 Descending Chicago Center
04:36PM 40.3394 -87.4656 245° Southwest 373 429 17,300 -4,020 Descending Chicago Center
04:37PM 40.2978 -87.5828 245° Southwest 360 414 13,300 -3,060 Descending Chicago Center
04:38PM 40.2558 -87.6942 244° Southwest 347 399 11,000 -1,140 Descending Chicago Center
04:39PM 40.2206 -87.7875 244° Southwest 296 341 11,000 -780 Level Chicago Center
04:41PM 40.1881 -87.8781 245° Southwest 258 297 9,400 -1,980 Descending Chicago Center
04:42PM 40.1539 -87.9719 245° Southwest 265 305 7,000 -2,400 Descending Chicago Center
04:43PM 40.1194 -88.0647 244° Southwest 274 315 4,500 -1,500 Descending Chicago Center
04:44PM 40.0858 -88.1517 243° Southwest 274 315 4,000 -540 Descending Chicago Center
04:46PM 40.0333 -88.2667 246° West  Level FlightAware Approximate
04:53PM 40.0388 -88.2778 246° West  Level Estimated
04:54PM 40.0388 -88.2778 246° West  Level Estimated
04:55PM 40.0388 -88.2778 246° West  Level Estimated